Time;durP1;ratioP1;P1;durP2;ratioP2;P2;SDS_P1;SDS_P2;PMS_P1;PMS_P2;Temp;Humidity;BMP_temperature;BMP_pressure;BME280_temperature;BME280_humidity;BME280_pressure;Samples;Min_cycle;Max_cycle;Signal;HPM_P1;HPM_P2
2021/11/16 00:02:20;;;;;;;;;;;1.20;46.90;;;;;;4389698;32;20062;-43
2021/11/16 00:04:47;;;;;;;;;;;1.30;46.90;;;;;;4389155;32;19958;-42
2021/11/16 00:07:13;;;;;;;;;;;1.40;46.80;;;;;;4389121;32;20377;-42
2021/11/16 00:09:39;;;;;;;;;;;1.40;46.70;;;;;;4388929;32;20061;-42
2021/11/16 00:12:06;;;;;;;;;;;1.40;46.70;;;;;;4388880;32;19989;-42
2021/11/16 00:14:32;;;;;;;;;;;1.40;46.80;;;;;;4388776;32;19964;-42
2021/11/16 00:16:58;;;;;;;;;;;1.40;46.70;;;;;;4388626;32;19961;-43
2021/11/16 00:19:27;;;;;;;;;;;1.40;46.80;;;;;;4389220;32;19977;-40
2021/11/16 00:21:56;;;;;;;;;;;1.30;46.80;;;;;;4374637;32;19962;-42
2021/11/16 00:24:35;;;;;;;;;;;1.30;46.80;;;;;;4373856;32;20403;-43
2021/11/16 00:27:02;;;;;;;;;;;1.30;47.10;;;;;;4373621;32;19977;-43
2021/11/16 00:29:29;;;;;;;;;;;1.20;47.30;;;;;;4373511;32;19967;-42
2021/11/16 00:31:57;;;;;;;;;;;1.20;47.30;;;;;;4373657;32;19966;-40
2021/11/16 00:34:23;;;;;;;;;;;1.30;47.50;;;;;;4374044;32;20050;-42
2021/11/16 00:36:49;;;;;;;;;;;1.30;47.50;;;;;;4373447;32;19981;-42
2021/11/16 00:39:16;;;;;;;;;;;1.30;47.50;;;;;;4373314;32;19966;-42
2021/11/16 00:41:43;;;;;;;;;;;1.30;47.50;;;;;;4373428;32;19981;-42
2021/11/16 00:44:09;;;;;;;;;;;1.30;47.10;;;;;;4373375;32;19958;-43
2021/11/16 00:46:35;;;;;;;;;;;1.40;47.20;;;;;;4373276;32;19968;-42
2021/11/16 00:49:01;;;;;;;;;;;1.40;47.00;;;;;;4373415;32;20041;-42
2021/11/16 00:51:28;;;;;;;;;;;1.40;47.10;;;;;;4373622;32;20045;-41
2021/11/16 00:53:54;;;;;;;;;;;1.40;46.80;;;;;;4373435;32;20394;-43
2021/11/16 00:56:20;;;;;;;;;;;1.40;47.10;;;;;;4372879;32;20374;-41
2021/11/16 00:58:46;;;;;;;;;;;1.40;47.00;;;;;;4372800;32;20439;-42
2021/11/16 01:01:12;;;;;;;;;;;1.30;47.10;;;;;;4373042;32;20054;-42
2021/11/16 01:03:39;;;;;;;;;;;1.30;47.30;;;;;;4373440;32;19969;-43
2021/11/16 01:06:05;;;;;;;;;;;1.30;47.50;;;;;;4359293;32;20544;-41
2021/11/16 01:08:31;;;;;;;;;;;1.40;47.10;;;;;;4373350;32;19970;-43
2021/11/16 01:10:57;;;;;;;;;;;1.30;47.20;;;;;;4373422;32;19993;-42
2021/11/16 01:13:25;;;;;;;;;;;1.30;47.40;;;;;;4373484;32;20010;-42
2021/11/16 01:15:52;;;;;;;;;;;1.30;47.00;;;;;;4373293;32;20055;-42
2021/11/16 01:18:19;;;;;;;;;;;1.30;46.20;;;;;;4372836;32;19965;-42
2021/11/16 01:20:45;;;;;;;;;;;1.20;46.50;;;;;;4372810;32;20000;-43
2021/11/16 01:23:13;;;;;;;;;;;1.20;46.30;;;;;;4372728;32;19970;-42
2021/11/16 01:25:39;;;;;;;;;;;1.10;46.40;;;;;;4373155;32;19981;-43
2021/11/16 01:28:11;;;;;;;;;;;1.10;46.50;;;;;;4373133;32;20005;-43
2021/11/16 01:30:40;;;;;;;;;;;1.10;46.60;;;;;;4382267;32;19965;-42
2021/11/16 01:33:10;;;;;;;;;;;1.20;46.70;;;;;;4388249;32;20544;-43
2021/11/16 01:35:37;;;;;;;;;;;1.20;46.20;;;;;;4387583;32;19993;-42
2021/11/16 01:38:04;;;;;;;;;;;1.20;45.90;;;;;;4388167;32;19990;-41
2021/11/16 01:40:30;;;;;;;;;;;1.10;46.00;;;;;;4388027;32;19957;-40
2021/11/16 01:42:57;;;;;;;;;;;1.10;46.10;;;;;;4390349;32;20021;-42
2021/11/16 01:45:23;;;;;;;;;;;1.10;46.20;;;;;;4392692;32;19978;-41
2021/11/16 01:47:49;;;;;;;;;;;1.10;46.20;;;;;;4392560;32;19968;-42
2021/11/16 01:50:17;;;;;;;;;;;1.10;46.10;;;;;;4393005;32;20444;-42
2021/11/16 01:52:43;;;;;;;;;;;1.10;45.90;;;;;;4392785;32;19981;-41
2021/11/16 01:55:10;;;;;;;;;;;1.10;46.00;;;;;;4392964;32;19973;-42
2021/11/16 01:57:37;;;;;;;;;;;1.10;45.90;;;;;;4392955;32;20001;-42
2021/11/16 02:00:10;;;;;;;;;;;1.00;46.40;;;;;;4392918;32;19970;-42
2021/11/16 02:02:36;;;;;;;;;;;1.00;46.30;;;;;;4378831;32;20562;-42
2021/11/16 02:05:03;;;;;;;;;;;1.00;46.40;;;;;;4392998;32;19977;-42
2021/11/16 02:07:29;;;;;;;;;;;1.00;46.10;;;;;;4392715;32;20390;-42
2021/11/16 02:09:55;;;;;;;;;;;1.00;46.00;;;;;;4392674;32;19981;-42
2021/11/16 02:12:22;;;;;;;;;;;1.10;46.00;;;;;;4392913;32;20016;-42
2021/11/16 02:14:48;;;;;;;;;;;1.10;45.40;;;;;;4392448;32;19969;-40
2021/11/16 02:17:15;;;;;;;;;;;1.10;45.20;;;;;;4392679;32;19969;-42
2021/11/16 02:19:41;;;;;;;;;;;1.20;44.70;;;;;;4391589;32;19966;-43
2021/11/16 02:22:07;;;;;;;;;;;1.20;44.40;;;;;;4363728;32;19969;-42
2021/11/16 02:24:34;;;;;;;;;;;1.20;44.40;;;;;;4363690;32;19950;-42
2021/11/16 02:27:00;;;;;;;;;;;1.20;44.30;;;;;;4363512;32;19963;-42
2021/11/16 02:29:26;;;;;;;;;;;1.30;44.40;;;;;;4377375;32;20414;-42
2021/11/16 02:31:54;;;;;;;;;;;1.30;44.30;;;;;;4377599;32;20024;-43
2021/11/16 02:34:20;;;;;;;;;;;1.30;44.20;;;;;;4377361;32;19959;-42
2021/11/16 02:36:46;;;;;;;;;;;1.40;44.20;;;;;;4377393;32;20021;-42
2021/11/16 02:39:15;;;;;;;;;;;1.40;44.20;;;;;;4376868;32;19988;-42
2021/11/16 02:41:45;;;;;;;;;;;1.30;44.00;;;;;;4377479;32;19985;-41
2021/11/16 02:44:14;;;;;;;;;;;1.40;44.20;;;;;;4377622;32;19977;-42
2021/11/16 02:46:40;;;;;;;;;;;1.30;43.80;;;;;;4377001;32;19976;-41
2021/11/16 02:49:06;;;;;;;;;;;1.30;43.90;;;;;;4376922;32;20021;-42
2021/11/16 02:51:33;;;;;;;;;;;1.30;44.00;;;;;;4377395;32;19966;-41
2021/11/16 02:54:00;;;;;;;;;;;1.30;43.90;;;;;;4375991;32;20017;-43
2021/11/16 02:56:26;;;;;;;;;;;1.30;44.00;;;;;;4374462;32;19981;-41
2021/11/16 02:58:53;;;;;;;;;;;1.30;44.80;;;;;;4374509;32;20051;-43
2021/11/16 03:01:19;;;;;;;;;;;1.30;44.80;;;;;;4374477;32;20005;-42
2021/11/16 03:03:45;;;;;;;;;;;1.40;44.30;;;;;;4360970;32;20004;-42
2021/11/16 03:06:13;;;;;;;;;;;1.40;43.90;;;;;;4374728;32;19973;-42
2021/11/16 03:08:39;;;;;;;;;;;1.40;44.00;;;;;;4374874;32;19993;-41
2021/11/16 03:11:07;;;;;;;;;;;1.40;43.70;;;;;;4374622;32;20377;-41
2021/11/16 03:13:37;;;;;;;;;;;1.40;43.70;;;;;;4375135;32;19978;-42
2021/11/16 03:16:07;;;;;;;;;;;1.40;43.70;;;;;;4374469;32;20050;-41
2021/11/16 03:18:33;;;;;;;;;;;1.50;44.00;;;;;;4374925;32;20406;-42
2021/11/16 03:21:00;;;;;;;;;;;1.50;44.10;;;;;;4374704;32;19970;-42
2021/11/16 03:23:27;;;;;;;;;;;1.50;44.00;;;;;;4374524;32;20452;-43
2021/11/16 03:25:59;;;;;;;;;;;1.50;44.00;;;;;;4374412;32;19963;-42
2021/11/16 03:28:28;;;;;;;;;;;1.60;43.90;;;;;;4374489;32;19977;-43
2021/11/16 03:30:55;;;;;;;;;;;1.60;43.90;;;;;;4386177;32;19994;-42
2021/11/16 03:33:22;;;;;;;;;;;1.60;44.10;;;;;;4375489;32;19958;-44
2021/11/16 03:35:49;;;;;;;;;;;1.70;44.30;;;;;;4389215;32;19998;-42
2021/11/16 03:38:17;;;;;;;;;;;1.80;44.30;;;;;;4389333;32;19977;-42
2021/11/16 03:40:44;;;;;;;;;;;1.90;44.10;;;;;;4389824;32;20046;-41
2021/11/16 03:43:10;;;;;;;;;;;1.90;44.00;;;;;;4389539;32;19965;-42
2021/11/16 03:45:37;;;;;;;;;;;2.00;44.10;;;;;;4389315;32;19989;-37
2021/11/16 03:48:03;;;;;;;;;;;2.00;43.90;;;;;;4389798;32;19975;-42
2021/11/16 03:50:31;;;;;;;;;;;2.10;44.00;;;;;;4389202;32;20000;-45
2021/11/16 03:52:58;;;;;;;;;;;2.10;44.00;;;;;;4389582;32;19997;-43
2021/11/16 03:55:32;;;;;;;;;;;2.10;43.90;;;;;;4389370;32;19954;-43
2021/11/16 03:57:58;;;;;;;;;;;2.20;43.90;;;;;;4388863;32;20016;-42
2021/11/16 04:00:50;;;;;;;;;;;2.20;43.80;;;;;;4389383;32;20082;-42
2021/11/16 04:03:17;;;;;;;;;;;2.20;43.80;;;;;;4388240;32;20392;-42
2021/11/16 04:05:43;;;;;;;;;;;2.20;43.60;;;;;;4388726;32;19965;-43
2021/11/16 04:08:10;;;;;;;;;;;2.20;43.60;;;;;;4389179;32;20010;-42
2021/11/16 04:10:36;;;;;;;;;;;2.20;43.40;;;;;;4389316;32;20049;-42
2021/11/16 04:13:02;;;;;;;;;;;2.10;43.20;;;;;;4374448;32;19988;-43
2021/11/16 04:15:30;;;;;;;;;;;2.10;43.20;;;;;;4388376;32;19993;-42
2021/11/16 04:17:57;;;;;;;;;;;2.00;43.30;;;;;;4374875;32;20056;-43
2021/11/16 04:20:28;;;;;;;;;;;2.00;43.30;;;;;;4383545;32;20057;-43
2021/11/16 04:22:56;;;;;;;;;;;1.90;43.20;;;;;;4373919;32;20361;-43
2021/11/16 04:25:22;;;;;;;;;;;1.80;43.30;;;;;;4373503;32;20037;-42
2021/11/16 04:27:49;;;;;;;;;;;1.80;43.40;;;;;;4373632;32;19973;-41
2021/11/16 04:30:17;;;;;;;;;;;1.70;43.40;;;;;;4373366;32;19986;-43
2021/11/16 04:32:44;;;;;;;;;;;1.70;43.30;;;;;;4373969;32;19970;-42
2021/11/16 04:35:10;;;;;;;;;;;1.60;43.30;;;;;;4373673;32;19954;-39
2021/11/16 04:37:40;;;;;;;;;;;1.60;43.40;;;;;;4373626;32;20066;-43
2021/11/16 04:40:11;;;;;;;;;;;1.50;43.40;;;;;;4373572;32;19976;-43
2021/11/16 04:42:37;;;;;;;;;;;1.50;43.50;;;;;;4373980;32;20013;-42
2021/11/16 04:45:09;;;;;;;;;;;1.40;43.50;;;;;;4373627;32;20473;-42
2021/11/16 04:47:42;;;;;;;;;;;1.40;43.50;;;;;;4360177;32;20109;-42
2021/11/16 04:50:35;;;;;;;;;;;1.40;43.50;;;;;;4360384;32;19993;-41
2021/11/16 05:03:56;;;;;;;;;;;1.30;43.50;;;;;;4371294;32;20051;-43
2021/11/16 05:06:22;;;;;;;;;;;1.30;43.40;;;;;;4357996;32;19969;-41
2021/11/16 05:08:50;;;;;;;;;;;1.30;43.40;;;;;;4370522;32;20035;-42
2021/11/16 05:11:16;;;;;;;;;;;1.20;44.00;;;;;;4370562;32;19981;-45
2021/11/16 05:13:43;;;;;;;;;;;1.20;43.30;;;;;;4370590;32;19968;-45
2021/11/16 05:16:20;;;;;;;;;;;1.20;43.30;;;;;;4370455;32;20029;-45
2021/11/16 05:18:46;;;;;;;;;;;1.20;43.30;;;;;;4357387;32;19981;-47
2021/11/16 05:21:12;;;;;;;;;;;1.10;43.00;;;;;;4357754;32;19977;-37
2021/11/16 05:23:43;;;;;;;;;;;1.10;43.10;;;;;;4358630;32;19966;-46
2021/11/16 05:26:10;;;;;;;;;;;1.10;43.00;;;;;;4374689;32;19977;-41
2021/11/16 05:28:36;;;;;;;;;;;1.10;43.00;;;;;;4388018;32;20068;-45
2021/11/16 05:31:02;;;;;;;;;;;1.10;42.70;;;;;;4387464;32;19985;-43
2021/11/16 05:33:29;;;;;;;;;;;1.10;42.80;;;;;;4388339;32;19961;-47
2021/11/16 05:36:01;;;;;;;;;;;1.20;42.80;;;;;;4387875;32;20029;-46
2021/11/16 05:38:29;;;;;;;;;;;1.20;42.80;;;;;;4387683;32;19973;-48
2021/11/16 05:40:56;;;;;;;;;;;1.30;42.70;;;;;;4387854;32;20383;-48
2021/11/16 05:43:22;;;;;;;;;;;1.30;42.50;;;;;;4387863;32;19982;-46
2021/11/16 05:45:49;;;;;;;;;;;1.30;42.40;;;;;;4387477;32;19961;-46
2021/11/16 05:48:15;;;;;;;;;;;1.30;42.40;;;;;;4373849;32;20038;-46
2021/11/16 05:50:42;;;;;;;;;;;1.30;42.40;;;;;;4387996;32;20049;-47
2021/11/16 05:53:09;;;;;;;;;;;1.40;42.80;;;;;;4387380;32;19962;-49
2021/11/16 05:55:35;;;;;;;;;;;1.40;42.50;;;;;;4387550;32;19985;-49
2021/11/16 05:58:02;;;;;;;;;;;1.50;42.50;;;;;;4387515;32;20359;-48
2021/11/16 06:00:28;;;;;;;;;;;1.60;42.40;;;;;;4387104;32;20365;-46
2021/11/16 06:02:55;;;;;;;;;;;1.60;42.20;;;;;;4387661;32;19974;-48
2021/11/16 06:05:21;;;;;;;;;;;1.70;42.30;;;;;;4373837;32;20085;-47
2021/11/16 06:07:47;;;;;;;;;;;1.80;42.70;;;;;;4387930;32;19981;-48
2021/11/16 06:10:14;;;;;;;;;;;1.90;42.00;;;;;;4387920;32;20041;-46
2021/11/16 06:12:41;;;;;;;;;;;1.90;42.40;;;;;;4387665;32;19974;-46
2021/11/16 06:15:08;;;;;;;;;;;2.00;41.90;;;;;;4387279;32;20089;-47
2021/11/16 06:17:34;;;;;;;;;;;2.00;41.90;;;;;;4387798;32;19970;-46
2021/11/16 06:20:00;;;;;;;;;;;2.00;42.00;;;;;;4384466;32;20091;-46
2021/11/16 06:22:27;;;;;;;;;;;2.10;42.20;;;;;;4372365;32;20023;-47
2021/11/16 06:24:53;;;;;;;;;;;2.20;42.40;;;;;;4372435;32;20073;-46
2021/11/16 06:27:19;;;;;;;;;;;2.20;42.10;;;;;;4372673;32;19970;-46
2021/11/16 06:29:45;;;;;;;;;;;2.20;42.20;;;;;;4374150;32;19970;-45
2021/11/16 06:32:12;;;;;;;;;;;2.20;42.40;;;;;;4375793;32;20041;-45
2021/11/16 06:34:38;;;;;;;;;;;2.30;42.40;;;;;;4375368;32;20038;-45
2021/11/16 06:37:05;;;;;;;;;;;2.20;42.30;;;;;;4374984;32;19974;-47
2021/11/16 06:39:31;;;;;;;;;;;2.20;42.40;;;;;;4375136;32;20019;-47
2021/11/16 06:41:59;;;;;;;;;;;2.30;42.50;;;;;;4374976;32;20014;-46
2021/11/16 06:44:25;;;;;;;;;;;2.20;42.40;;;;;;4375475;32;19957;-46
2021/11/16 06:46:52;;;;;;;;;;;2.20;42.10;;;;;;4374883;32;19978;-46
2021/11/16 06:49:19;;;;;;;;;;;2.10;42.00;;;;;;4375337;32;20000;-44
2021/11/16 06:51:47;;;;;;;;;;;2.10;42.30;;;;;;4374907;32;20370;-44
2021/11/16 06:54:15;;;;;;;;;;;2.10;42.60;;;;;;4374852;32;19968;-45
2021/11/16 06:56:41;;;;;;;;;;;2.30;42.70;;;;;;4348492;32;19994;-45
2021/11/16 06:59:08;;;;;;;;;;;2.30;42.20;;;;;;4375025;32;20086;-46
2021/11/16 07:01:37;;;;;;;;;;;2.30;42.30;;;;;;4374809;32;20055;-44
2021/11/16 07:04:08;;;;;;;;;;;2.30;42.40;;;;;;4374632;32;20001;-44
2021/11/16 07:06:36;;;;;;;;;;;2.30;42.10;;;;;;4374922;32;19985;-46
2021/11/16 07:09:02;;;;;;;;;;;2.30;42.40;;;;;;4374733;32;19973;-44
2021/11/16 07:11:29;;;;;;;;;;;2.40;42.50;;;;;;4374641;32;19966;-45
2021/11/16 07:14:03;;;;;;;;;;;2.30;42.30;;;;;;4374504;32;19992;-44
2021/11/16 07:16:38;;;;;;;;;;;2.40;42.60;;;;;;4374743;32;20417;-44
2021/11/16 07:19:08;;;;;;;;;;;2.40;42.60;;;;;;4374567;32;19985;-45
2021/11/16 07:21:47;;;;;;;;;;;2.40;42.50;;;;;;4374598;32;19962;-44
2021/11/16 07:24:25;;;;;;;;;;;2.40;42.40;;;;;;4374822;32;19973;-45
2021/11/16 07:26:59;;;;;;;;;;;2.40;42.50;;;;;;4374399;32;20443;-46
2021/11/16 07:29:36;;;;;;;;;;;2.50;43.00;;;;;;4376498;32;20454;-44
2021/11/16 07:32:03;;;;;;;;;;;2.60;42.50;;;;;;4375225;32;20028;-45
2021/11/16 07:34:31;;;;;;;;;;;2.60;42.30;;;;;;4375420;32;20418;-46
2021/11/16 07:37:03;;;;;;;;;;;2.70;42.00;;;;;;4389569;32;19985;-45
2021/11/16 07:39:31;;;;;;;;;;;2.60;42.10;;;;;;4389241;32;19984;-44
2021/11/16 07:42:04;;;;;;;;;;;2.60;42.30;;;;;;4388512;32;19972;-50
2021/11/16 07:44:31;;;;;;;;;;;2.60;42.50;;;;;;4389332;32;19973;-43
2021/11/16 07:46:57;;;;;;;;;;;2.70;42.50;;;;;;4389141;32;20003;-44
2021/11/16 07:49:24;;;;;;;;;;;2.70;42.40;;;;;;4389198;32;20482;-45
2021/11/16 07:51:51;;;;;;;;;;;2.80;42.10;;;;;;4389165;32;20362;-45
2021/11/16 07:54:24;;;;;;;;;;;2.70;41.70;;;;;;4389117;32;20076;-43
2021/11/16 07:56:51;;;;;;;;;;;2.70;42.00;;;;;;4389219;32;20371;-44
2021/11/16 07:59:19;;;;;;;;;;;2.60;42.10;;;;;;4388996;32;19972;-44
2021/11/16 08:02:04;;;;;;;;;;;2.60;42.30;;;;;;4389257;32;20078;-44
2021/11/16 08:07:12;;;;;;;;;;;2.50;42.90;;;;;;4388986;32;19969;-45
2021/11/16 08:09:46;;;;;;;;;;;2.50;42.30;;;;;;4388647;32;20397;-44
2021/11/16 08:12:38;;;;;;;;;;;2.50;43.10;;;;;;4388962;32;19985;-45
2021/11/16 08:15:05;;;;;;;;;;;2.50;42.60;;;;;;4388233;32;20489;-40
2021/11/16 08:17:32;;;;;;;;;;;2.50;43.00;;;;;;4388344;32;20389;-44
2021/11/16 08:20:01;;;;;;;;;;;2.50;43.20;;;;;;4371687;32;20046;-43
2021/11/16 08:22:27;;;;;;;;;;;2.50;43.20;;;;;;4373517;32;19972;-43
2021/11/16 08:24:54;;;;;;;;;;;2.50;43.30;;;;;;4373420;32;19976;-43
2021/11/16 08:27:22;;;;;;;;;;;2.40;43.40;;;;;;4373688;32;20035;-45
2021/11/16 08:29:59;;;;;;;;;;;2.50;43.40;;;;;;4359528;32;20445;-45
2021/11/16 08:32:33;;;;;;;;;;;2.50;43.30;;;;;;4373600;32;20029;-40
2021/11/16 08:35:00;;;;;;;;;;;2.40;43.50;;;;;;4359852;32;20087;-45
2021/11/16 08:37:29;;;;;;;;;;;2.40;43.60;;;;;;4373023;32;20048;-44
2021/11/16 08:39:58;;;;;;;;;;;2.40;43.70;;;;;;4373567;32;19962;-42
2021/11/16 08:42:27;;;;;;;;;;;2.40;43.80;;;;;;4373505;32;20049;-40
2021/11/16 08:45:11;;;;;;;;;;;2.50;44.00;;;;;;4373165;32;19965;-42
2021/11/16 08:47:48;;;;;;;;;;;2.50;44.20;;;;;;4373244;32;19974;-44
2021/11/16 08:50:28;;;;;;;;;;;2.50;44.10;;;;;;4373196;32;20567;-43
2021/11/16 08:52:56;;;;;;;;;;;2.60;44.00;;;;;;4372105;32;19978;-42
2021/11/16 08:55:26;;;;;;;;;;;2.70;43.80;;;;;;4373374;32;19959;-44
2021/11/16 08:57:53;;;;;;;;;;;2.70;43.60;;;;;;4372977;32;19962;-40
2021/11/16 09:00:26;;;;;;;;;;;2.70;43.40;;;;;;4372634;32;20048;-43
2021/11/16 09:03:05;;;;;;;;;;;2.70;43.30;;;;;;4372452;32;19997;-42
2021/11/16 09:05:33;;;;;;;;;;;2.60;43.50;;;;;;4371325;32;19969;-42
2021/11/16 09:08:00;;;;;;;;;;;2.60;43.10;;;;;;4373177;32;20446;-44
2021/11/16 09:10:37;;;;;;;;;;;2.60;43.80;;;;;;4370582;32;19972;-42
2021/11/16 09:13:05;;;;;;;;;;;2.60;43.10;;;;;;4372598;32;19962;-43
2021/11/16 09:16:00;;;;;;;;;;;2.60;43.40;;;;;;4373200;32;20041;-44
2021/11/16 09:18:29;;;;;;;;;;;2.60;43.40;;;;;;4370411;32;19973;-43
2021/11/16 09:21:03;;;;;;;;;;;2.60;43.40;;;;;;4381130;32;19969;-43
2021/11/16 09:23:50;;;;;;;;;;;2.60;43.40;;;;;;4387857;32;19973;-44
2021/11/16 09:29:12;;;;;;;;;;;2.60;43.40;;;;;;4387861;32;20049;-39
2021/11/16 09:31:42;;;;;;;;;;;2.70;43.60;;;;;;4387920;32;20034;-42
2021/11/16 09:34:17;;;;;;;;;;;2.80;43.30;;;;;;4387705;32;19982;-46
2021/11/16 09:36:57;;;;;;;;;;;2.90;43.10;;;;;;4387738;32;20334;-45
2021/11/16 09:39:25;;;;;;;;;;;2.90;42.80;;;;;;4387849;32;20158;-41
2021/11/16 09:42:03;;;;;;;;;;;2.90;42.50;;;;;;4373462;32;19982;-44
2021/11/16 09:44:34;;;;;;;;;;;3.00;42.70;;;;;;4388082;32;19960;-43
2021/11/16 09:47:07;;;;;;;;;;;3.00;42.50;;;;;;4387925;32;19985;-44
2021/11/16 09:49:36;;;;;;;;;;;3.00;42.80;;;;;;4387821;32;19954;-44
2021/11/16 09:52:06;;;;;;;;;;;3.10;42.90;;;;;;4387488;32;19975;-45
2021/11/16 09:54:47;;;;;;;;;;;3.00;42.60;;;;;;4387838;32;20021;-42
2021/11/16 09:57:14;;;;;;;;;;;3.00;42.80;;;;;;4387292;32;20048;-44
2021/11/16 09:59:42;;;;;;;;;;;3.00;43.00;;;;;;4373611;32;20085;-43
2021/11/16 10:02:15;;;;;;;;;;;3.00;42.50;;;;;;4387304;32;19965;-45
2021/11/16 10:04:46;;;;;;;;;;;2.90;42.70;;;;;;4376003;32;19964;-43
2021/11/16 10:07:13;;;;;;;;;;;2.90;43.00;;;;;;4390580;32;20421;-44
2021/11/16 10:09:42;;;;;;;;;;;2.90;43.00;;;;;;4390628;32;19973;-44
2021/11/16 10:12:09;;;;;;;;;;;2.90;43.50;;;;;;4390834;32;19981;-43
2021/11/16 10:14:35;;;;;;;;;;;3.00;43.30;;;;;;4390375;32;20049;-43
2021/11/16 10:17:02;;;;;;;;;;;3.00;43.30;;;;;;4390501;32;19966;-42
2021/11/16 10:19:28;;;;;;;;;;;3.00;43.40;;;;;;4390598;32;20070;-42
2021/11/16 10:21:54;;;;;;;;;;;3.00;43.20;;;;;;4375399;32;19962;-43
2021/11/16 10:24:32;;;;;;;;;;;3.00;43.40;;;;;;4375322;32;20394;-44
2021/11/16 10:27:00;;;;;;;;;;;2.90;43.50;;;;;;4362699;32;20518;-43
2021/11/16 10:29:26;;;;;;;;;;;2.90;43.70;;;;;;4375202;32;20154;-43
2021/11/16 10:31:52;;;;;;;;;;;2.90;44.00;;;;;;4374801;32;20442;-44
2021/11/16 10:34:19;;;;;;;;;;;2.90;44.10;;;;;;4361251;32;20029;-43
2021/11/16 10:36:45;;;;;;;;;;;2.90;43.80;;;;;;4375098;32;19986;-44
2021/11/16 10:39:11;;;;;;;;;;;2.90;44.00;;;;;;4375045;32;20497;-43
2021/11/16 10:41:38;;;;;;;;;;;3.00;44.00;;;;;;4375420;32;19973;-44
2021/11/16 10:44:10;;;;;;;;;;;3.00;43.90;;;;;;4375059;32;19970;-44
2021/11/16 10:46:40;;;;;;;;;;;3.00;44.00;;;;;;4374652;32;20456;-43
2021/11/16 10:49:14;;;;;;;;;;;3.00;43.70;;;;;;4360831;32;20443;-44
2021/11/16 10:51:44;;;;;;;;;;;3.00;43.80;;;;;;4375252;32;19958;-43
2021/11/16 10:54:12;;;;;;;;;;;2.90;43.90;;;;;;4361275;32;20463;-43
2021/11/16 10:56:38;;;;;;;;;;;2.90;43.50;;;;;;4374843;32;19970;-43
2021/11/16 10:59:06;;;;;;;;;;;2.90;43.70;;;;;;4374647;32;19989;-44
2021/11/16 11:01:32;;;;;;;;;;;2.90;43.80;;;;;;4374586;32;20012;-44
2021/11/16 11:03:59;;;;;;;;;;;3.00;43.70;;;;;;4348610;32;20359;-44
2021/11/16 11:06:32;;;;;;;;;;;3.10;43.70;;;;;;4374394;32;19965;-40
2021/11/16 11:09:00;;;;;;;;;;;3.10;43.40;;;;;;4374661;32;20069;-40
2021/11/16 11:11:38;;;;;;;;;;;3.20;43.50;;;;;;4374681;32;19982;-46
2021/11/16 11:14:16;;;;;;;;;;;3.30;43.80;;;;;;4374284;32;20475;-44
2021/11/16 11:16:49;;;;;;;;;;;3.40;43.70;;;;;;4373914;32;19962;-44
2021/11/16 11:19:20;;;;;;;;;;;3.50;43.70;;;;;;4374659;32;19973;-41
2021/11/16 11:21:58;;;;;;;;;;;3.60;43.30;;;;;;4374520;32;20400;-45
2021/11/16 11:24:37;;;;;;;;;;;3.70;43.30;;;;;;4372924;32;19977;-49
2021/11/16 11:27:40;;;;;;;;;;;3.80;43.10;;;;;;4374919;32;19974;-43
2021/11/16 11:29:57;;;;;;;;;;;3.90;42.60;;;;;;4378017;32;19970;-44
2021/11/16 11:32:28;;;;;;;;;;;3.90;42.10;;;;;;4389486;32;20179;-44
2021/11/16 11:35:03;;;;;;;;;;;3.80;42.30;;;;;;4389701;32;20061;-43
2021/11/16 11:37:34;;;;;;;;;;;3.80;42.30;;;;;;4390059;32;19980;-40
2021/11/16 11:40:05;;;;;;;;;;;3.80;42.50;;;;;;4375730;32;19959;-40
2021/11/16 11:42:33;;;;;;;;;;;3.80;42.90;;;;;;4389545;32;20001;-42
2021/11/16 11:45:20;;;;;;;;;;;3.80;43.00;;;;;;4375032;32;20439;-41
2021/11/16 11:47:47;;;;;;;;;;;3.70;42.90;;;;;;4389221;32;19965;-43
2021/11/16 11:50:46;;;;;;;;;;;3.70;43.10;;;;;;4389460;32;19969;-42
2021/11/16 11:53:23;;;;;;;;;;;3.70;43.20;;;;;;4342060;33;19971;-42
2021/11/16 11:55:51;;;;;;;;;;;3.60;43.30;;;;;;4330264;33;19971;-42
2021/11/16 11:58:19;;;;;;;;;;;3.70;43.40;;;;;;4341487;33;20416;-42
2021/11/16 12:00:49;;;;;;;;;;;3.70;43.60;;;;;;4341914;33;19966;-42
2021/11/16 12:03:16;;;;;;;;;;;3.80;43.60;;;;;;4341216;33;20060;-42
2021/11/16 12:05:42;;;;;;;;;;;3.80;43.60;;;;;;4341693;33;19985;-42
2021/11/16 12:08:10;;;;;;;;;;;3.90;43.40;;;;;;4341813;33;19978;-44
2021/11/16 12:10:37;;;;;;;;;;;3.90;43.40;;;;;;4341810;33;20436;-42
2021/11/16 12:13:04;;;;;;;;;;;4.00;43.40;;;;;;4329563;33;19985;-44
2021/11/16 12:15:40;;;;;;;;;;;4.00;43.40;;;;;;4341120;33;19967;-43
2021/11/16 12:18:07;;;;;;;;;;;4.00;43.30;;;;;;4329093;33;20527;-43
2021/11/16 12:20:51;;;;;;;;;;;3.90;43.00;;;;;;4335109;33;19991;-44
2021/11/16 12:23:38;;;;;;;;;;;3.80;43.00;;;;;;4326371;33;20001;-43
2021/11/16 12:26:08;;;;;;;;;;;3.80;43.40;;;;;;4320751;33;20485;-43
2021/11/16 12:28:35;;;;;;;;;;;3.80;43.50;;;;;;4331073;32;20050;-43
2021/11/16 12:31:02;;;;;;;;;;;3.80;43.60;;;;;;4373226;32;19962;-42
2021/11/16 12:33:43;;;;;;;;;;;3.80;43.70;;;;;;4373135;32;20460;-44
2021/11/16 12:36:11;;;;;;;;;;;3.70;43.70;;;;;;4373494;32;20464;-42
2021/11/16 12:38:42;;;;;;;;;;;3.70;43.80;;;;;;4373084;32;19980;-43
2021/11/16 12:41:27;;;;;;;;;;;3.60;44.10;;;;;;4373065;32;19996;-42
2021/11/16 12:43:55;;;;;;;;;;;3.50;44.10;;;;;;4372964;32;19997;-42
2021/11/16 12:46:22;;;;;;;;;;;3.40;44.50;;;;;;4372768;32;19966;-41
2021/11/16 12:48:56;;;;;;;;;;;3.30;44.70;;;;;;4373016;32;20050;-43
2021/11/16 12:51:36;;;;;;;;;;;3.20;45.20;;;;;;4373325;32;19996;-45
2021/11/16 12:54:23;;;;;;;;;;;3.10;45.60;;;;;;4373131;32;19953;-44
2021/11/16 12:56:50;;;;;;;;;;;3.00;45.80;;;;;;4372672;32;20005;-44
2021/11/16 12:59:24;;;;;;;;;;;2.90;46.10;;;;;;4372589;32;19993;-46
2021/11/16 13:01:56;;;;;;;;;;;2.90;46.40;;;;;;4372384;32;20078;-43
2021/11/16 13:04:46;;;;;;;;;;;2.90;46.70;;;;;;4372933;32;19970;-45
2021/11/16 13:07:32;;;;;;;;;;;2.80;46.80;;;;;;4373067;32;19997;-46
2021/11/16 13:10:03;;;;;;;;;;;2.70;47.10;;;;;;4372784;32;20066;-44
2021/11/16 13:12:51;;;;;;;;;;;2.70;47.50;;;;;;4372847;32;19998;-46
2021/11/16 13:15:32;;;;;;;;;;;2.70;47.90;;;;;;4372510;32;20046;-38
2021/11/16 13:18:11;;;;;;;;;;;2.60;47.70;;;;;;4372402;32;20433;-45
2021/11/16 13:20:42;;;;;;;;;;;2.60;48.30;;;;;;4373174;32;19973;-45
2021/11/16 13:23:14;;;;;;;;;;;2.60;48.40;;;;;;4372846;32;19965;-46
2021/11/16 13:26:03;;;;;;;;;;;2.60;48.30;;;;;;4372856;32;20037;-45
2021/11/16 13:31:07;;;;;;;;;;;2.50;48.30;;;;;;4383417;32;20474;-46
2021/11/16 13:33:57;;;;;;;;;;;2.50;48.60;;;;;;4387239;32;19968;-45
2021/11/16 13:36:27;;;;;;;;;;;2.50;48.90;;;;;;4387717;32;19965;-48
2021/11/16 13:39:11;;;;;;;;;;;2.50;48.80;;;;;;4373182;32;20008;-41
2021/11/16 13:41:51;;;;;;;;;;;2.50;49.00;;;;;;4373783;32;20023;-47
2021/11/16 13:44:23;;;;;;;;;;;2.50;49.10;;;;;;4374148;32;19973;-47
2021/11/16 13:47:05;;;;;;;;;;;2.50;49.20;;;;;;4387378;32;19977;-46
2021/11/16 13:49:41;;;;;;;;;;;2.50;49.30;;;;;;4387069;32;19982;-45
2021/11/16 13:52:25;;;;;;;;;;;2.50;49.30;;;;;;4387309;32;19966;-46
2021/11/16 13:55:13;;;;;;;;;;;2.50;49.30;;;;;;4387439;32;20381;-47
2021/11/16 13:57:43;;;;;;;;;;;2.60;49.30;;;;;;4387544;32;19969;-46
2021/11/16 14:00:18;;;;;;;;;;;2.60;49.20;;;;;;4373865;32;19996;-46
2021/11/16 14:02:53;;;;;;;;;;;2.60;49.20;;;;;;4354472;32;20015;-46
2021/11/16 14:05:26;;;;;;;;;;;2.70;49.10;;;;;;4355617;32;19982;-46
2021/11/16 14:08:00;;;;;;;;;;;2.70;49.00;;;;;;4355037;32;20519;-47
2021/11/16 14:10:37;;;;;;;;;;;2.80;48.90;;;;;;4355065;32;19966;-43
2021/11/16 14:13:13;;;;;;;;;;;2.80;48.80;;;;;;4354891;32;19990;-45
2021/11/16 14:15:39;;;;;;;;;;;2.90;48.80;;;;;;4342977;32;20071;-46
2021/11/16 14:18:13;;;;;;;;;;;2.90;48.60;;;;;;4354988;32;20044;-47
2021/11/16 14:20:40;;;;;;;;;;;2.90;48.40;;;;;;4348566;32;20422;-48
2021/11/16 14:23:13;;;;;;;;;;;2.90;48.10;;;;;;4340524;33;19973;-46
2021/11/16 14:25:52;;;;;;;;;;;3.00;48.00;;;;;;4340700;33;20030;-47
2021/11/16 14:28:21;;;;;;;;;;;3.00;47.90;;;;;;4340527;33;19983;-45
2021/11/16 14:30:47;;;;;;;;;;;3.00;47.70;;;;;;4350143;32;20029;-47
2021/11/16 14:33:14;;;;;;;;;;;3.00;47.60;;;;;;4355695;32;19967;-41
2021/11/16 14:35:54;;;;;;;;;;;3.00;47.40;;;;;;4357787;32;19987;-46
2021/11/16 14:38:33;;;;;;;;;;;3.00;47.50;;;;;;4357787;32;19966;-48
2021/11/16 14:41:13;;;;;;;;;;;3.00;47.50;;;;;;4357381;32;20399;-47
2021/11/16 14:43:40;;;;;;;;;;;3.00;47.50;;;;;;4344635;32;19970;-45
2021/11/16 14:46:17;;;;;;;;;;;3.00;47.20;;;;;;4357405;32;19965;-47
2021/11/16 14:48:50;;;;;;;;;;;2.90;47.20;;;;;;4357510;32;19967;-48
2021/11/16 14:53:44;;;;;;;;;;;3.00;47.40;;;;;;4345751;32;20371;-48
2021/11/16 14:56:37;;;;;;;;;;;3.00;47.40;;;;;;4346020;32;20377;-47
2021/11/16 14:59:06;;;;;;;;;;;3.00;47.30;;;;;;4351505;32;20418;-46
2021/11/16 15:01:38;;;;;;;;;;;3.00;47.50;;;;;;4360106;32;20063;-46
2021/11/16 15:04:11;;;;;;;;;;;3.00;46.80;;;;;;4359807;32;19967;-47
2021/11/16 15:06:40;;;;;;;;;;;2.90;46.90;;;;;;4359957;32;20410;-47
2021/11/16 15:09:15;;;;;;;;;;;2.90;47.00;;;;;;4359711;32;19962;-46
2021/11/16 15:11:44;;;;;;;;;;;2.90;47.60;;;;;;4359683;32;19971;-47